sensor_id;sensor_type;location;lat;lon;timestamp;pressure;altitude;pressure_sealevel;temperature;humidity
49342;BME280;35210;41.606;-87.602;2023-05-01T00:01:49;97743.94;;;8.82;83.55
49342;BME280;35210;41.606;-87.602;2023-05-01T00:04:17;97740.09;;;8.77;83.93
49342;BME280;35210;41.606;-87.602;2023-05-01T00:06:46;97735.63;;;8.60;83.82
49342;BME280;35210;41.606;-87.602;2023-05-01T00:09:15;97733.00;;;8.60;84.42
49342;BME280;35210;41.606;-87.602;2023-05-01T00:11:43;97741.81;;;8.68;84.96
49342;BME280;35210;41.606;-87.602;2023-05-01T00:14:12;97737.38;;;8.69;85.14
49342;BME280;35210;41.606;-87.602;2023-05-01T00:16:40;97730.84;;;8.73;84.98
49342;BME280;35210;41.606;-87.602;2023-05-01T00:19:10;97736.03;;;8.65;84.16
49342;BME280;35210;41.606;-87.602;2023-05-01T00:21:43;97737.69;;;8.66;84.86
49342;BME280;35210;41.606;-87.602;2023-05-01T00:24:13;97737.28;;;8.61;84.89
49342;BME280;35210;41.606;-87.602;2023-05-01T00:26:42;97734.81;;;8.59;84.90
49342;BME280;35210;41.606;-87.602;2023-05-01T00:29:10;97744.44;;;8.68;85.60
49342;BME280;35210;41.606;-87.602;2023-05-01T00:31:39;97740.69;;;8.71;85.92
49342;BME280;35210;41.606;-87.602;2023-05-01T00:34:09;97748.97;;;8.76;85.46
49342;BME280;35210;41.606;-87.602;2023-05-01T00:36:39;97745.22;;;8.78;85.12
49342;BME280;35210;41.606;-87.602;2023-05-01T00:39:07;97753.94;;;8.79;85.11
49342;BME280;35210;41.606;-87.602;2023-05-01T00:41:36;97745.75;;;8.82;84.28
49342;BME280;35210;41.606;-87.602;2023-05-01T00:44:04;97734.78;;;8.86;84.80
49342;BME280;35210;41.606;-87.602;2023-05-01T00:46:33;97741.47;;;8.81;84.79
49342;BME280;35210;41.606;-87.602;2023-05-01T00:49:02;97737.72;;;8.83;85.61
49342;BME280;35210;41.606;-87.602;2023-05-01T00:51:33;97735.91;;;8.84;84.87
49342;BME280;35210;41.606;-87.602;2023-05-01T00:54:02;97739.00;;;8.79;84.69
49342;BME280;35210;41.606;-87.602;2023-05-01T00:56:30;97742.34;;;8.72;84.64
49342;BME280;35210;41.606;-87.602;2023-05-01T00:58:59;97746.25;;;8.68;84.37
49342;BME280;35210;41.606;-87.602;2023-05-01T01:01:27;97735.34;;;8.63;84.09
49342;BME280;35210;41.606;-87.602;2023-05-01T01:03:56;97742.25;;;8.64;85.05
49342;BME280;35210;41.606;-87.602;2023-05-01T01:06:35;97741.44;;;8.63;84.02
49342;BME280;35210;41.606;-87.602;2023-05-01T01:09:22;97732.38;;;8.48;84.43
49342;BME280;35210;41.606;-87.602;2023-05-01T01:12:05;97738.47;;;8.48;85.01
49342;BME280;35210;41.606;-87.602;2023-05-01T01:14:57;97745.78;;;8.54;85.02
49342;BME280;35210;41.606;-87.602;2023-05-01T01:17:31;97740.22;;;8.57;83.68
49342;BME280;35210;41.606;-87.602;2023-05-01T01:26:11;97746.41;;;8.39;83.37
49342;BME280;35210;41.606;-87.602;2023-05-01T01:29:09;97741.97;;;8.39;84.76
49342;BME280;35210;41.606;-87.602;2023-05-01T01:31:54;97740.31;;;8.38;85.41
49342;BME280;35210;41.606;-87.602;2023-05-01T01:34:32;97743.47;;;8.32;84.21
49342;BME280;35210;41.606;-87.602;2023-05-01T01:37:07;97735.44;;;8.43;84.46
49342;BME280;35210;41.606;-87.602;2023-05-01T01:39:44;97733.94;;;8.41;84.15
49342;BME280;35210;41.606;-87.602;2023-05-01T01:42:17;97743.31;;;8.43;84.36
49342;BME280;35210;41.606;-87.602;2023-05-01T01:44:50;97744.69;;;8.47;83.99
49342;BME280;35210;41.606;-87.602;2023-05-01T01:47:21;97739.00;;;8.52;84.63
49342;BME280;35210;41.606;-87.602;2023-05-01T01:49:55;97745.47;;;8.57;83.87
49342;BME280;35210;41.606;-87.602;2023-05-01T01:52:25;97738.31;;;8.50;83.72
49342;BME280;35210;41.606;-87.602;2023-05-01T01:54:59;97733.44;;;8.55;84.46
49342;BME280;35210;41.606;-87.602;2023-05-01T01:57:31;97744.13;;;8.53;84.44
49342;BME280;35210;41.606;-87.602;2023-05-01T02:00:00;97744.78;;;8.55;83.93
49342;BME280;35210;41.606;-87.602;2023-05-01T02:02:29;97745.91;;;8.53;83.92
49342;BME280;35210;41.606;-87.602;2023-05-01T02:05:00;97738.84;;;8.53;83.15
49342;BME280;35210;41.606;-87.602;2023-05-01T02:07:30;97749.09;;;8.56;83.10
49342;BME280;35210;41.606;-87.602;2023-05-01T02:10:00;97745.19;;;8.61;82.73
49342;BME280;35210;41.606;-87.602;2023-05-01T02:12:29;97740.22;;;8.57;83.80
49342;BME280;35210;41.606;-87.602;2023-05-01T02:14:59;97749.91;;;8.57;83.12
49342;BME280;35210;41.606;-87.602;2023-05-01T02:17:28;97743.53;;;8.60;83.53
49342;BME280;35210;41.606;-87.602;2023-05-01T02:19:59;97739.38;;;8.57;83.52
49342;BME280;35210;41.606;-87.602;2023-05-01T02:22:29;97745.78;;;8.54;83.31
49342;BME280;35210;41.606;-87.602;2023-05-01T02:24:59;97742.84;;;8.57;83.44
49342;BME280;35210;41.606;-87.602;2023-05-01T02:27:31;97741.34;;;8.55;84.08
49342;BME280;35210;41.606;-87.602;2023-05-01T02:30:01;97748.94;;;8.58;83.49
49342;BME280;35210;41.606;-87.602;2023-05-01T02:32:30;97746.44;;;8.56;84.20
49342;BME280;35210;41.606;-87.602;2023-05-01T02:35:00;97738.25;;;8.60;84.38
49342;BME280;35210;41.606;-87.602;2023-05-01T02:37:28;97741.56;;;8.62;83.69
49342;BME280;35210;41.606;-87.602;2023-05-01T02:39:57;97746.84;;;8.62;84.12
49342;BME280;35210;41.606;-87.602;2023-05-01T02:42:26;97748.50;;;8.63;83.81
49342;BME280;35210;41.606;-87.602;2023-05-01T02:44:59;97745.44;;;8.67;83.45
49342;BME280;35210;41.606;-87.602;2023-05-01T02:47:30;97751.13;;;8.63;83.79
49342;BME280;35210;41.606;-87.602;2023-05-01T02:50:04;97745.88;;;8.63;83.38
49342;BME280;35210;41.606;-87.602;2023-05-01T02:52:34;97743.53;;;8.60;84.20
49342;BME280;35210;41.606;-87.602;2023-05-01T02:55:03;97737.97;;;8.63;84.06
49342;BME280;35210;41.606;-87.602;2023-05-01T02:57:32;97747.53;;;8.64;82.65
49342;BME280;35210;41.606;-87.602;2023-05-01T03:00:00;97749.09;;;8.56;82.93
49342;BME280;35210;41.606;-87.602;2023-05-01T03:02:28;97746.53;;;8.65;83.34
49342;BME280;35210;41.606;-87.602;2023-05-01T03:04:57;97734.50;;;8.62;82.40
49342;BME280;35210;41.606;-87.602;2023-05-01T03:07:27;97739.34;;;8.67;82.48
49342;BME280;35210;41.606;-87.602;2023-05-01T03:10:00;97736.03;;;8.65;83.19
49342;BME280;35210;41.606;-87.602;2023-05-01T03:12:28;97729.41;;;8.61;82.37
49342;BME280;35210;41.606;-87.602;2023-05-01T03:14:56;97737.88;;;8.54;82.33
49342;BME280;35210;41.606;-87.602;2023-05-01T03:17:24;97738.84;;;8.53;81.95
49342;BME280;35210;41.606;-87.602;2023-05-01T03:19:52;97722.69;;;8.48;81.90
49342;BME280;35210;41.606;-87.602;2023-05-01T03:22:21;97720.03;;;8.48;82.41
49342;BME280;35210;41.606;-87.602;2023-05-01T03:24:51;97720.19;;;8.47;81.62
49342;BME280;35210;41.606;-87.602;2023-05-01T03:27:19;97718.38;;;8.47;81.47
49342;BME280;35210;41.606;-87.602;2023-05-01T03:29:47;97721.22;;;8.36;82.33
49342;BME280;35210;41.606;-87.602;2023-05-01T03:32:16;97717.91;;;8.34;82.17
49342;BME280;35210;41.606;-87.602;2023-05-01T03:34:44;97711.81;;;8.34;83.03
49342;BME280;35210;41.606;-87.602;2023-05-01T03:37:12;97711.66;;;8.35;83.20
49342;BME280;35210;41.606;-87.602;2023-05-01T03:39:40;97708.22;;;8.35;83.02
49342;BME280;35210;41.606;-87.602;2023-05-01T03:42:09;97711.09;;;8.41;82.30
49342;BME280;35210;41.606;-87.602;2023-05-01T03:44:38;97705.72;;;8.33;83.06
49342;BME280;35210;41.606;-87.602;2023-05-01T03:47:07;97711.25;;;8.30;82.99
49342;BME280;35210;41.606;-87.602;2023-05-01T03:49:35;97705.72;;;8.33;83.21
49342;BME280;35210;41.606;-87.602;2023-05-01T03:52:04;97704.47;;;8.28;83.03
49342;BME280;35210;41.606;-87.602;2023-05-01T03:54:33;97706.66;;;8.32;83.38
49342;BME280;35210;41.606;-87.602;2023-05-01T03:57:03;97707.09;;;8.37;83.63
49342;BME280;35210;41.606;-87.602;2023-05-01T03:59:33;97705.97;;;8.40;83.21
49342;BME280;35210;41.606;-87.602;2023-05-01T04:02:02;97712.22;;;8.39;83.58
49342;BME280;35210;41.606;-87.602;2023-05-01T04:04:31;97709.88;;;8.36;83.94
49342;BME280;35210;41.606;-87.602;2023-05-01T04:06:59;97716.50;;;8.40;84.40
49342;BME280;35210;41.606;-87.602;2023-05-01T04:09:27;97712.63;;;8.34;84.76
49342;BME280;35210;41.606;-87.602;2023-05-01T04:11:56;97704.59;;;8.36;85.33
49342;BME280;35210;41.606;-87.602;2023-05-01T04:14:25;97710.41;;;8.39;85.55
49342;BME280;35210;41.606;-87.602;2023-05-01T04:16:54;97703.50;;;8.38;85.50
49342;BME280;35210;41.606;-87.602;2023-05-01T04:19:22;97702.50;;;8.39;85.78
49342;BME280;35210;41.606;-87.602;2023-05-01T04:21:51;97705.44;;;8.27;85.08
49342;BME280;35210;41.606;-87.602;2023-05-01T04:24:19;97705.31;;;8.28;84.42
49342;BME280;35210;41.606;-87.602;2023-05-01T04:26:47;97701.16;;;8.25;84.02
49342;BME280;35210;41.606;-87.602;2023-05-01T04:29:15;97715.69;;;8.30;84.85
49342;BME280;35210;41.606;-87.602;2023-05-01T04:31:44;97705.00;;;8.31;83.97
49342;BME280;35210;41.606;-87.602;2023-05-01T04:34:14;97703.19;;;8.41;84.29
49342;BME280;35210;41.606;-87.602;2023-05-01T04:36:42;97706.81;;;8.31;83.67
49342;BME280;35210;41.606;-87.602;2023-05-01T04:39:10;97709.03;;;8.35;82.75
49342;BME280;35210;41.606;-87.602;2023-05-01T04:41:39;97710.00;;;8.34;82.56
49342;BME280;35210;41.606;-87.602;2023-05-01T04:44:07;97712.06;;;8.31;83.08
49342;BME280;35210;41.606;-87.602;2023-05-01T04:46:35;97710.69;;;8.36;82.84
49342;BME280;35210;41.606;-87.602;2023-05-01T04:49:03;97710.28;;;8.31;83.05
49342;BME280;35210;41.606;-87.602;2023-05-01T04:51:32;97705.44;;;8.36;82.89
49342;BME280;35210;41.606;-87.602;2023-05-01T04:54:00;97698.09;;;8.30;83.04
49342;BME280;35210;41.606;-87.602;2023-05-01T04:56:29;97697.94;;;8.32;82.82
49342;BME280;35210;41.606;-87.602;2023-05-01T04:58:57;97693.25;;;8.35;82.37
49342;BME280;35210;41.606;-87.602;2023-05-01T05:01:25;97699.06;;;8.29;82.20
49342;BME280;35210;41.606;-87.602;2023-05-01T05:03:53;97698.25;;;8.29;81.80
49342;BME280;35210;41.606;-87.602;2023-05-01T05:06:21;97693.81;;;8.29;82.59
49342;BME280;35210;41.606;-87.602;2023-05-01T05:08:51;97695.75;;;8.27;82.82
49342;BME280;35210;41.606;-87.602;2023-05-01T05:11:19;97695.22;;;8.33;82.67
49342;BME280;35210;41.606;-87.602;2023-05-01T05:13:47;97689.50;;;8.38;82.54
49342;BME280;35210;41.606;-87.602;2023-05-01T05:16:15;97700.41;;;8.43;81.50
49342;BME280;35210;41.606;-87.602;2023-05-01T05:18:43;97699.44;;;8.44;81.80
49342;BME280;35210;41.606;-87.602;2023-05-01T05:21:11;97698.19;;;8.48;82.20
49342;BME280;35210;41.606;-87.602;2023-05-01T05:23:39;97700.38;;;8.52;82.43
49342;BME280;35210;41.606;-87.602;2023-05-01T05:26:09;97699.53;;;8.52;82.66
49342;BME280;35210;41.606;-87.602;2023-05-01T05:28:38;97701.19;;;8.53;83.34
49342;BME280;35210;41.606;-87.602;2023-05-01T05:31:06;97696.66;;;8.45;83.06
49342;BME280;35210;41.606;-87.602;2023-05-01T05:33:34;97702.03;;;8.53;83.75
49342;BME280;35210;41.606;-87.602;2023-05-01T05:36:04;97700.13;;;8.46;83.24
49342;BME280;35210;41.606;-87.602;2023-05-01T05:38:32;97702.91;;;8.44;83.66
49342;BME280;35210;41.606;-87.602;2023-05-01T05:41:00;97693.06;;;8.46;83.68
49342;BME280;35210;41.606;-87.602;2023-05-01T05:43:30;97685.16;;;8.46;82.85
49342;BME280;35210;41.606;-87.602;2023-05-01T05:45:59;97673.81;;;8.46;83.50
49342;BME280;35210;41.606;-87.602;2023-05-01T05:48:27;97680.59;;;8.48;83.65
49342;BME280;35210;41.606;-87.602;2023-05-01T05:50:55;97682.78;;;8.53;83.43
49342;BME280;35210;41.606;-87.602;2023-05-01T05:53:23;97667.34;;;8.40;83.57
49342;BME280;35210;41.606;-87.602;2023-05-01T05:55:51;97656.91;;;8.48;83.62
49342;BME280;35210;41.606;-87.602;2023-05-01T05:58:19;97663.84;;;8.49;83.64
49342;BME280;35210;41.606;-87.602;2023-05-01T06:00:51;97665.88;;;8.55;83.47
49342;BME280;35210;41.606;-87.602;2023-05-01T06:03:20;97670.75;;;8.50;83.07
49342;BME280;35210;41.606;-87.602;2023-05-01T06:05:49;97666.63;;;8.48;83.84
49342;BME280;35210;41.606;-87.602;2023-05-01T06:08:17;97655.25;;;8.47;83.99
49342;BME280;35210;41.606;-87.602;2023-05-01T06:10:45;97662.84;;;8.50;83.65
49342;BME280;35210;41.606;-87.602;2023-05-01T06:13:13;97650.59;;;8.41;83.49
49342;BME280;35210;41.606;-87.602;2023-05-01T06:15:41;97646.19;;;8.32;84.15
49342;BME280;35210;41.606;-87.602;2023-05-01T06:18:12;97649.22;;;8.37;83.54
49342;BME280;35210;41.606;-87.602;2023-05-01T06:20:41;97654.19;;;8.40;83.26
49342;BME280;35210;41.606;-87.602;2023-05-01T06:23:09;97658.34;;;8.43;83.21
49342;BME280;35210;41.606;-87.602;2023-05-01T06:25:38;97657.81;;;8.39;82.42
49342;BME280;35210;41.606;-87.602;2023-05-01T06:28:07;97653.22;;;8.41;82.60
49342;BME280;35210;41.606;-87.602;2023-05-01T06:30:36;97653.91;;;8.43;81.94
49342;BME280;35210;41.606;-87.602;2023-05-01T06:33:04;97648.66;;;8.43;82.36
49342;BME280;35210;41.606;-87.602;2023-05-01T06:35:33;97639.63;;;8.46;81.62
49342;BME280;35210;41.606;-87.602;2023-05-01T06:38:01;97640.69;;;8.53;81.14
49342;BME280;35210;41.606;-87.602;2023-05-01T06:40:30;97638.59;;;8.29;80.44
49342;BME280;35210;41.606;-87.602;2023-05-01T06:42:59;97644.97;;;8.27;80.53
49342;BME280;35210;41.606;-87.602;2023-05-01T06:45:27;97641.06;;;8.13;79.72
49342;BME280;35210;41.606;-87.602;2023-05-01T06:47:56;97648.81;;;8.14;79.00
49342;BME280;35210;41.606;-87.602;2023-05-01T06:50:24;97625.88;;;8.07;78.38
49342;BME280;35210;41.606;-87.602;2023-05-01T06:52:55;97626.69;;;8.07;78.34
49342;BME280;35210;41.606;-87.602;2023-05-01T06:55:25;97626.94;;;8.14;78.40
49342;BME280;35210;41.606;-87.602;2023-05-01T06:57:56;97615.88;;;8.10;77.73
49342;BME280;35210;41.606;-87.602;2023-05-01T07:00:24;97627.53;;;8.08;78.95
49342;BME280;35210;41.606;-87.602;2023-05-01T07:02:52;97626.41;;;8.10;78.80
49342;BME280;35210;41.606;-87.602;2023-05-01T07:05:21;97621.00;;;8.12;78.75
49342;BME280;35210;41.606;-87.602;2023-05-01T07:07:49;97620.31;;;8.10;78.42
49342;BME280;35210;41.606;-87.602;2023-05-01T07:10:19;97627.97;;;8.03;78.65
49342;BME280;35210;41.606;-87.602;2023-05-01T07:12:48;97628.34;;;8.08;78.33
49342;BME280;35210;41.606;-87.602;2023-05-01T07:15:16;97624.50;;;8.03;77.93
49342;BME280;35210;41.606;-87.602;2023-05-01T07:17:44;97618.84;;;7.98;78.94
49342;BME280;35210;41.606;-87.602;2023-05-01T07:20:12;97617.19;;;7.97;79.42
49342;BME280;35210;41.606;-87.602;2023-05-01T07:22:42;97615.13;;;8.00;79.84
49342;BME280;35210;41.606;-87.602;2023-05-01T07:25:10;97609.13;;;8.08;80.42
49342;BME280;35210;41.606;-87.602;2023-05-01T07:27:40;97605.91;;;8.14;80.51
49342;BME280;35210;41.606;-87.602;2023-05-01T07:30:09;97602.81;;;8.18;79.44
49342;BME280;35210;41.606;-87.602;2023-05-01T07:32:37;97606.94;;;8.21;78.96
49342;BME280;35210;41.606;-87.602;2023-05-01T07:35:06;97597.56;;;8.18;77.92
49342;BME280;35210;41.606;-87.602;2023-05-01T07:37:34;97592.28;;;8.18;78.67
49342;BME280;35210;41.606;-87.602;2023-05-01T07:40:02;97599.22;;;8.19;78.79
49342;BME280;35210;41.606;-87.602;2023-05-01T07:42:31;97590.44;;;8.11;78.79
49342;BME280;35210;41.606;-87.602;2023-05-01T07:45:00;97595.97;;;8.08;78.96
49342;BME280;35210;41.606;-87.602;2023-05-01T07:47:28;97593.34;;;8.08;79.98
49342;BME280;35210;41.606;-87.602;2023-05-01T07:49:56;97592.44;;;7.99;80.76
49342;BME280;35210;41.606;-87.602;2023-05-01T07:52:24;97583.34;;;7.94;81.68
49342;BME280;35210;41.606;-87.602;2023-05-01T07:54:52;97585.53;;;7.98;82.29
49342;BME280;35210;41.606;-87.602;2023-05-01T07:57:20;97581.09;;;7.99;82.14
49342;BME280;35210;41.606;-87.602;2023-05-01T07:59:53;97581.63;;;8.02;82.54
49342;BME280;35210;41.606;-87.602;2023-05-01T08:02:23;97584.59;;;7.89;81.53
49342;BME280;35210;41.606;-87.602;2023-05-01T08:04:51;97580.31;;;7.88;81.75
49342;BME280;35210;41.606;-87.602;2023-05-01T08:07:19;97578.94;;;7.84;81.76
49342;BME280;35210;41.606;-87.602;2023-05-01T08:09:47;97581.97;;;7.89;81.87
49342;BME280;35210;41.606;-87.602;2023-05-01T08:12:15;97600.50;;;7.88;80.82
49342;BME280;35210;41.606;-87.602;2023-05-01T08:14:43;97598.91;;;7.77;81.17
49342;BME280;35210;41.606;-87.602;2023-05-01T08:17:11;97583.38;;;7.84;81.41
49342;BME280;35210;41.606;-87.602;2023-05-01T08:19:41;97584.88;;;7.86;81.43
49342;BME280;35210;41.606;-87.602;2023-05-01T08:22:10;97583.78;;;7.89;80.44
49342;BME280;35210;41.606;-87.602;2023-05-01T08:24:38;97579.19;;;7.91;80.50
49342;BME280;35210;41.606;-87.602;2023-05-01T08:27:07;97590.44;;;7.83;81.05
49342;BME280;35210;41.606;-87.602;2023-05-01T08:29:36;97600.50;;;7.88;80.99
49342;BME280;35210;41.606;-87.602;2023-05-01T08:32:04;97591.66;;;7.89;81.61
49342;BME280;35210;41.606;-87.602;2023-05-01T08:34:32;97578.06;;;7.94;81.17
49342;BME280;35210;41.606;-87.602;2023-05-01T08:37:01;97570.56;;;7.99;81.54
49342;BME280;35210;41.606;-87.602;2023-05-01T08:39:30;97579.81;;;8.03;81.74
49342;BME280;35210;41.606;-87.602;2023-05-01T08:41:59;97574.19;;;7.98;82.35
49342;BME280;35210;41.606;-87.602;2023-05-01T08:44:28;97565.31;;;7.99;82.85
49342;BME280;35210;41.606;-87.602;2023-05-01T08:47:09;97573.75;;;8.02;83.18
49342;BME280;35210;41.606;-87.602;2023-05-01T08:49:40;97562.53;;;8.00;82.23
49342;BME280;35210;41.606;-87.602;2023-05-01T08:52:11;97563.00;;;7.96;82.28
49342;BME280;35210;41.606;-87.602;2023-05-01T08:54:41;97556.38;;;7.91;82.66
49342;BME280;35210;41.606;-87.602;2023-05-01T08:57:10;97567.72;;;7.92;83.19
49342;BME280;35210;41.606;-87.602;2023-05-01T08:59:39;97567.94;;;7.99;82.94
49342;BME280;35210;41.606;-87.602;2023-05-01T09:02:08;97564.88;;;8.03;82.25
49342;BME280;35210;41.606;-87.602;2023-05-01T09:04:37;97554.75;;;8.08;82.19
49342;BME280;35210;41.606;-87.602;2023-05-01T09:07:06;97557.06;;;7.94;82.55
49342;BME280;35210;41.606;-87.602;2023-05-01T09:09:36;97557.88;;;7.94;82.33
49342;BME280;35210;41.606;-87.602;2023-05-01T09:12:13;97546.53;;;7.94;82.94
49342;BME280;35210;41.606;-87.602;2023-05-01T09:14:45;97549.84;;;7.96;82.94
49342;BME280;35210;41.606;-87.602;2023-05-01T09:17:14;97557.44;;;7.99;82.79
49342;BME280;35210;41.606;-87.602;2023-05-01T09:19:42;97558.78;;;8.03;82.13
49342;BME280;35210;41.606;-87.602;2023-05-01T09:22:11;97542.19;;;8.02;82.18
49342;BME280;35210;41.606;-87.602;2023-05-01T09:24:40;97552.03;;;8.00;82.46
49342;BME280;35210;41.606;-87.602;2023-05-01T09:27:10;97546.94;;;7.99;83.18
49342;BME280;35210;41.606;-87.602;2023-05-01T09:29:40;97547.91;;;7.98;82.95
49342;BME280;35210;41.606;-87.602;2023-05-01T09:32:16;97543.31;;;8.00;83.00
49342;BME280;35210;41.606;-87.602;2023-05-01T09:34:46;97549.25;;;8.02;82.82
49342;BME280;35210;41.606;-87.602;2023-05-01T09:37:24;97537.09;;;8.01;80.79
49342;BME280;35210;41.606;-87.602;2023-05-01T09:40:05;97541.00;;;7.97;80.20
49342;BME280;35210;41.606;-87.602;2023-05-01T09:42:35;97528.44;;;7.90;79.52
49342;BME280;35210;41.606;-87.602;2023-05-01T09:45:10;97548.94;;;7.87;78.88
49342;BME280;35210;41.606;-87.602;2023-05-01T09:47:40;97536.28;;;7.73;79.62
49342;BME280;35210;41.606;-87.602;2023-05-01T09:50:10;97532.81;;;7.72;80.23
49342;BME280;35210;41.606;-87.602;2023-05-01T09:52:48;97531.16;;;7.71;79.60
49342;BME280;35210;41.606;-87.602;2023-05-01T09:55:19;97538.06;;;7.72;78.84
49342;BME280;35210;41.606;-87.602;2023-05-01T09:57:48;97537.41;;;7.70;79.19
49342;BME280;35210;41.606;-87.602;2023-05-01T10:00:17;97535.06;;;7.67;79.18
49342;BME280;35210;41.606;-87.602;2023-05-01T10:02:48;97524.03;;;7.64;78.20
49342;BME280;35210;41.606;-87.602;2023-05-01T10:05:16;97538.72;;;7.56;79.72
49342;BME280;35210;41.606;-87.602;2023-05-01T10:07:56;97527.28;;;7.48;79.61
49342;BME280;35210;41.606;-87.602;2023-05-01T10:10:26;97525.44;;;7.58;79.91
49342;BME280;35210;41.606;-87.602;2023-05-01T10:12:54;97526.34;;;7.67;79.08
49342;BME280;35210;41.606;-87.602;2023-05-01T10:15:35;97522.06;;;7.66;78.16
49342;BME280;35210;41.606;-87.602;2023-05-01T10:18:04;97518.91;;;7.62;78.16
49342;BME280;35210;41.606;-87.602;2023-05-01T10:20:34;97524.16;;;7.62;76.92
49342;BME280;35210;41.606;-87.602;2023-05-01T10:23:02;97520.19;;;7.58;77.53
49342;BME280;35210;41.606;-87.602;2023-05-01T10:25:32;97529.59;;;7.51;77.84
49342;BME280;35210;41.606;-87.602;2023-05-01T10:28:02;97522.84;;;7.48;78.25
49342;BME280;35210;41.606;-87.602;2023-05-01T10:30:30;97524.66;;;7.48;78.93
49342;BME280;35210;41.606;-87.602;2023-05-01T10:32:59;97519.50;;;7.56;79.06
49342;BME280;35210;41.606;-87.602;2023-05-01T10:35:30;97515.22;;;7.55;79.17
49342;BME280;35210;41.606;-87.602;2023-05-01T10:38:00;97522.50;;;7.61;79.04
49342;BME280;35210;41.606;-87.602;2023-05-01T10:40:50;97513.94;;;7.59;79.67
49342;BME280;35210;41.606;-87.602;2023-05-01T10:43:20;97517.44;;;7.50;79.83
49342;BME280;35210;41.606;-87.602;2023-05-01T10:45:52;97516.56;;;7.59;80.07
49342;BME280;35210;41.606;-87.602;2023-05-01T10:48:56;97512.34;;;7.48;81.04
49342;BME280;35210;41.606;-87.602;2023-05-01T10:51:25;97508.59;;;7.51;80.76
49342;BME280;35210;41.606;-87.602;2023-05-01T10:54:22;97505.59;;;7.46;79.80
49342;BME280;35210;41.606;-87.602;2023-05-01T10:56:56;97515.88;;;7.39;80.58
49342;BME280;35210;41.606;-87.602;2023-05-01T10:59:26;97518.03;;;7.44;79.47
49342;BME280;35210;41.606;-87.602;2023-05-01T11:01:54;97518.34;;;7.41;79.59
49342;BME280;35210;41.606;-87.602;2023-05-01T11:04:45;97528.47;;;7.36;79.25
49342;BME280;35210;41.606;-87.602;2023-05-01T11:07:17;97528.59;;;7.34;78.48
49342;BME280;35210;41.606;-87.602;2023-05-01T11:09:46;97528.59;;;7.34;78.86
49342;BME280;35210;41.606;-87.602;2023-05-01T11:12:50;97536.88;;;7.39;78.39
49342;BME280;35210;41.606;-87.602;2023-05-01T11:15:26;97541.28;;;7.39;78.44
49342;BME280;35210;41.606;-87.602;2023-05-01T11:17:54;97534.38;;;7.38;78.80
49342;BME280;35210;41.606;-87.602;2023-05-01T11:23:27;97537.69;;;7.40;80.29
49342;BME280;35210;41.606;-87.602;2023-05-01T11:26:02;97557.41;;;7.44;80.43
49342;BME280;35210;41.606;-87.602;2023-05-01T11:28:37;97546.56;;;7.39;80.87
49342;BME280;35210;41.606;-87.602;2023-05-01T11:31:05;97557.47;;;7.34;81.20
49342;BME280;35210;41.606;-87.602;2023-05-01T11:33:33;97547.09;;;7.42;81.17
49342;BME280;35210;41.606;-87.602;2023-05-01T11:36:02;97545.91;;;7.54;80.30
49342;BME280;35210;41.606;-87.602;2023-05-01T11:38:30;97541.19;;;7.58;80.06
49342;BME280;35210;41.606;-87.602;2023-05-01T11:41:00;97535.22;;;7.66;79.84
49342;BME280;35210;41.606;-87.602;2023-05-01T11:43:29;97525.09;;;7.71;78.83
49342;BME280;35210;41.606;-87.602;2023-05-01T11:45:59;97520.53;;;7.73;78.19
49342;BME280;35210;41.606;-87.602;2023-05-01T11:48:30;97520.38;;;7.74;78.44
49342;BME280;35210;41.606;-87.602;2023-05-01T11:50:58;97536.13;;;7.74;78.08
49342;BME280;35210;41.606;-87.602;2023-05-01T11:53:27;97524.81;;;7.74;78.33
49342;BME280;35210;41.606;-87.602;2023-05-01T11:55:55;97526.69;;;7.81;77.68
49342;BME280;35210;41.606;-87.602;2023-05-01T11:58:33;97529.72;;;7.86;77.53
49342;BME280;35210;41.606;-87.602;2023-05-01T12:01:04;97523.84;;;7.93;76.10
49342;BME280;35210;41.606;-87.602;2023-05-01T12:03:42;97526.09;;;7.87;76.65
49342;BME280;35210;41.606;-87.602;2023-05-01T12:06:11;97531.06;;;7.90;76.36
49342;BME280;35210;41.606;-87.602;2023-05-01T12:08:47;97530.28;;;7.80;75.25
49342;BME280;35210;41.606;-87.602;2023-05-01T12:11:17;97527.66;;;7.80;75.27
49342;BME280;35210;41.606;-87.602;2023-05-01T12:13:46;97529.91;;;7.75;76.08
49342;BME280;35210;41.606;-87.602;2023-05-01T12:16:16;97533.91;;;7.79;76.41
49342;BME280;35210;41.606;-87.602;2023-05-01T12:18:45;97536.63;;;7.87;76.48
49342;BME280;35210;41.606;-87.602;2023-05-01T12:21:15;97532.47;;;7.85;76.45
49342;BME280;35210;41.606;-87.602;2023-05-01T12:23:45;97546.84;;;7.90;76.25
49342;BME280;35210;41.606;-87.602;2023-05-01T12:26:15;97536.03;;;7.94;76.63
49342;BME280;35210;41.606;-87.602;2023-05-01T12:28:53;97534.44;;;7.83;77.23
49342;BME280;35210;41.606;-87.602;2023-05-01T12:31:23;97529.41;;;7.89;77.59
49342;BME280;35210;41.606;-87.602;2023-05-01T12:33:55;97533.84;;;7.89;77.07
49342;BME280;35210;41.606;-87.602;2023-05-01T12:36:24;97524.38;;;7.96;78.10
49342;BME280;35210;41.606;-87.602;2023-05-01T12:39:01;97531.59;;;7.94;77.72
49342;BME280;35210;41.606;-87.602;2023-05-01T12:41:34;97523.28;;;7.99;77.25
49342;BME280;35210;41.606;-87.602;2023-05-01T12:44:17;97522.44;;;7.98;77.71
49342;BME280;35210;41.606;-87.602;2023-05-01T12:46:54;97512.75;;;7.99;78.03
49342;BME280;35210;41.606;-87.602;2023-05-01T12:49:23;97521.31;;;8.01;78.00
49342;BME280;35210;41.606;-87.602;2023-05-01T12:51:52;97528.22;;;8.02;78.03
49342;BME280;35210;41.606;-87.602;2023-05-01T12:54:22;97522.59;;;7.97;77.63
49342;BME280;35210;41.606;-87.602;2023-05-01T12:56:50;97510.81;;;8.01;78.14
49342;BME280;35210;41.606;-87.602;2023-05-01T12:59:20;97517.41;;;8.05;77.97
49342;BME280;35210;41.606;-87.602;2023-05-01T13:01:58;97525.59;;;8.02;78.41
49342;BME280;35210;41.606;-87.602;2023-05-01T13:04:27;97521.69;;;8.06;78.53
49342;BME280;35210;41.606;-87.602;2023-05-01T13:06:56;97502.31;;;8.07;78.76
49342;BME280;35210;41.606;-87.602;2023-05-01T13:09:25;97517.28;;;8.06;78.03
49342;BME280;35210;41.606;-87.602;2023-05-01T13:11:57;97501.72;;;8.13;79.17
49342;BME280;35210;41.606;-87.602;2023-05-01T13:14:26;97510.88;;;8.09;78.26
49342;BME280;35210;41.606;-87.602;2023-05-01T13:16:54;97507.81;;;8.13;78.11